Historyczne dane pomiarowe

Dodano dane terminowe – wersja testowa.

Dane z okresu 1951-2019

Wersja bazy: 1.34 [2019-03-16, lista zmian], aktualizacja planowana na 2019-04-15

Dane meteo z obszaru Polski uzyskane na podstawie danych udostępnionych przez Instytut Meteorologii i Gospodarki Wodnej – Państwowy Instytut Badawczy.

 

Wybierz Datę:    

       

TemperaturaWilgotnośćWiatrCiśnienieOpadyŚniegCzas trwania zjawisk
 Stacja t tx tn tng RH VA  wxwx mslp ppp RRR   cm mm wxwxwxwxwxwxwx
1997-03-18 -0.2 3.5 -3.6- 75.3- 7.0 1.0---- 0.8------------
1997-03-19 1.5 3.9 -1.8- 92.8- 8.0 1.7---- 1.6------------
1997-03-20 -1.7 2.1 -3.8- 77.8- 6.0 1.0---- 0.0------------
1997-03-21 -2.4 0.9 -5.2- 88.5- 7.7 2.7---- 3.4------------
1997-03-22 -0.3 1.7 -1.4- 86.5- 7.3 4.0---- 2.4------------
1997-03-23 -1.9 4.1 -7.6- 62.8- 6.3 4.0---- 0.0-- 1---------
1997-03-24 1.3 5.3 -1.5- 92.3- 5.3 1.7---- 0.0------------
1997-03-25 1.8 4.3 0.0- 85.0- 5.3 0.3---- 0.0------------
1997-03-26 4.1 8.8 -0.4- 73.3- 7.3 2.3---- 1.2------------
1997-03-27 7.9 12.8 4.0- 76.8- 7.7 5.7---- 1.8------------
1997-03-28 6.5 10.1 4.8- 79.8- 8.0 6.7---- 10.6------------
1997-03-29 2.3 5.8 0.0- 95.3- 7.7 3.0---- 1.4------------
1997-03-30 3.3 6.9 -0.5- 81.0- 7.7 1.0---- 4.6------------
1997-03-31 7.1 10.7 3.6- 78.8- 5.3 1.0---- 0.0------------
1997-04-01 8.3 15.2 0.8- 74.3- 5.3 1.7---- 0.0------------
1997-04-02 7.3 15.0 0.0- 74.8- 6.3 3.0---- 0.0------------
1997-04-03 7.5 16.2 -0.5- 79.3- 7.7 1.0---- 1.2------------
1997-04-04 3.8 14.2 -0.6- 93.3- 8.0 1.0---- 2.4------------
1997-04-05 0.8 1.6 -0.5- 85.8- 7.7 1.7---- 12.8------------
1997-04-06 1.2 3.2 -0.8- 84.5- 7.3 3.0---- 4.2------------
1997-04-07 -0.1 5.2 -5.1- 75.0- 6.3 0.0---- 0.0------------
1997-04-08 -0.5 6.1 -6.7- 63.3- 5.3 1.0---- 0.0------------
1997-04-09 4.4 10.6 -1.4- 55.3- 4.3 1.0---- 0.0------------
1997-04-10 6.0 10.7 2.0- 70.0- 5.3 1.0---- 0.0------------
1997-04-11 5.4 7.4 3.8- 83.3- 7.7 1.7---- 3.8------------
1997-04-12 2.1 4.9 0.4- 85.0- 6.7 0.3---- 0.8------------
1997-04-13 -1.4 4.9 -6.9- 67.0- 6.3 0.3---- 0.0------------
1997-04-14 2.2 4.9 0.6- 98.5- 7.7 1.0---- 4.8------------
1997-04-15 1.0 2.8 -0.5- 84.0- 8.0 1.0---- 3.6-- 4---------
1997-04-16 -0.5 1.2 -2.1- 99.5- 7.7 4.0---- 1.8------------
255.1 ms

 

Źródłem pochodzenia danych jest Instytut Meteorologii i Gospodarki Wodnej – Państwowy Instytut Badawczy. Dane Instytutu Meteorologii i Gospodarki Wodnej – Państwowego Instytutu Badawczego zostały przetworzone.

Dane źródłowe można odnaleźć na stronie https://dane.imgw.pl